Terminal Aerodrome Forecast
Issued by NWS

Home | Current Version | Previous Version | Text Only | Print | Product List | Glossary On
Versions: 1 2 3 4 5 6 7 8 9 10 11 12 13 14 15 16 17 18 19 20 21
000
FTAK31 PAJN 061733
TAFAJN
TAF
PAJN 061733Z 0618/0718 06006KT P6SM BKN100
     FM062300 09009KT 5SM -SN BKN030 OVC050
     FM070300 11010KT 3SM -SN BR SCT006 OVC020
     FM070800 11011KT 4SM -SN BR SCT006 OVC025=

USA.gov is the U.S. government's official web portal to all federal, state and local government web resources and services.